North Central West Virginia Airport
KCKB : now visible

Airfield :











YOU CAN JOIN US ON...

 
LOGIN :

Register | Disclaimer

   EN    FR    IT 

 









Legend :    VFR   Marginal VFR   IFR   Intensive IFR   Very Intensive IFR
Visi :
Ceiling :
>= 8 km
>= 3000ft
5 to 8 km
1000 to 3000 ft
1500m to 5 km
500 to 1000 ft
800 to 1500m
200 to 500 ft
< 800m
< 200 ft
Symbols :   Thunderstorms  Fog  Heavy snow  Heavy precipitations  Wind > 20 kt






- Airport Elevation : 1217 ft
- IATA code : CKB


KCKB - North Central West Virginia

CURRENT METAR :
  • 211253Z 00000KT 10SM OVC060 06/00 A3009 RMK AO2 SLP186 T00560000

EXPIRED METARs :
  • 211153Z AUTO 00000KT 10SM OVC055 04/00 A3007 RMK AO2 SLP181 T00390000 10050 20017 53002
  • 211053Z AUTO 00000KT 10SM CLR 03/M02 A3007 RMK AO2 SLP179 T00281017
  • 210953Z AUTO 00000KT 10SM CLR 03/M02 A3007 RMK AO2 SLP179 T00331017
  • 210853Z AUTO 00000KT 10SM CLR 03/M01 A3007 RMK AO2 SLP178 T00331011 55003

TAF KCKB
Valid from the 21 at 12:00 until the 22 at 12:00 UTC


211120Z 2112/2212 03004KT P6SM SCT200
FM211400 35007KT P6SM OVC045
FM212100 30008KT P6SM SCT050
FM220100 32002KT P6SM FEW250
KZOB FIR / North America



MET'MAP, your aeronautical weather chart ! - Copyright ORBIFLY December 2007 - Disclaimer

ORBIFLY MET'MAP TEAM :

Programming & Development : Alexandra Zaïnal
Original concept : Baudouin d'Aumeries
Technical & hardware support : Manuel Goepfert
Assistance : Marc-Olivier Méhu




SOURCES & CREDITS :

   NOAA       Earth
Advisory